sensor_id;sensor_type;location;lat;lon;timestamp;temperature;humidity
59075;DHT22;44860;53.020;6.738;2022-09-12T00:02:19;14.50;99.90
59075;DHT22;44860;53.020;6.738;2022-09-12T00:04:45;14.50;99.90
59075;DHT22;44860;53.020;6.738;2022-09-12T00:07:10;14.50;99.90
59075;DHT22;44860;53.020;6.738;2022-09-12T00:09:36;14.40;99.90
59075;DHT22;44860;53.020;6.738;2022-09-12T00:12:03;14.40;99.90
59075;DHT22;44860;53.020;6.738;2022-09-12T00:14:28;14.40;99.90
59075;DHT22;44860;53.020;6.738;2022-09-12T00:16:57;14.40;99.90
59075;DHT22;44860;53.020;6.738;2022-09-12T00:19:26;14.40;99.90
59075;DHT22;44860;53.020;6.738;2022-09-12T00:21:53;14.40;99.90
59075;DHT22;44860;53.020;6.738;2022-09-12T00:24:18;14.30;99.90
59075;DHT22;44860;53.020;6.738;2022-09-12T00:26:44;14.40;99.90
59075;DHT22;44860;53.020;6.738;2022-09-12T00:29:15;14.30;99.90
59075;DHT22;44860;53.020;6.738;2022-09-12T00:31:41;14.30;99.90
59075;DHT22;44860;53.020;6.738;2022-09-12T00:34:08;14.20;99.90
59075;DHT22;44860;53.020;6.738;2022-09-12T00:36:34;14.30;99.90
59075;DHT22;44860;53.020;6.738;2022-09-12T00:39:00;14.20;99.90
59075;DHT22;44860;53.020;6.738;2022-09-12T00:41:29;14.20;99.90
59075;DHT22;44860;53.020;6.738;2022-09-12T00:44:01;14.10;99.90
59075;DHT22;44860;53.020;6.738;2022-09-12T00:54:23;14.10;99.90
59075;DHT22;44860;53.020;6.738;2022-09-12T00:56:52;14.10;99.90
59075;DHT22;44860;53.020;6.738;2022-09-12T00:59:26;14.10;99.90
59075;DHT22;44860;53.020;6.738;2022-09-12T01:01:53;14.10;99.90
59075;DHT22;44860;53.020;6.738;2022-09-12T01:04:22;14.10;99.90
59075;DHT22;44860;53.020;6.738;2022-09-12T01:06:49;14.00;99.90
59075;DHT22;44860;53.020;6.738;2022-09-12T01:09:19;14.00;99.90
59075;DHT22;44860;53.020;6.738;2022-09-12T01:11:46;14.10;99.90
59075;DHT22;44860;53.020;6.738;2022-09-12T01:14:14;14.10;99.90
59075;DHT22;44860;53.020;6.738;2022-09-12T01:16:41;14.10;99.90
59075;DHT22;44860;53.020;6.738;2022-09-12T01:25:31;14.00;99.90
59075;DHT22;44860;53.020;6.738;2022-09-12T01:28:23;14.00;99.90
59075;DHT22;44860;53.020;6.738;2022-09-12T01:31:07;14.00;99.90
59075;DHT22;44860;53.020;6.738;2022-09-12T01:33:58;14.00;99.90
59075;DHT22;44860;53.020;6.738;2022-09-12T01:36:42;13.90;99.90
59075;DHT22;44860;53.020;6.738;2022-09-12T01:44:35;13.80;99.90
59075;DHT22;44860;53.020;6.738;2022-09-12T01:50:05;13.80;99.90
59075;DHT22;44860;53.020;6.738;2022-09-12T01:52:59;13.80;99.90
59075;DHT22;44860;53.020;6.738;2022-09-12T01:55:33;13.80;99.90
59075;DHT22;44860;53.020;6.738;2022-09-12T01:58:08;13.80;99.90
59075;DHT22;44860;53.020;6.738;2022-09-12T02:00:43;13.80;99.90
59075;DHT22;44860;53.020;6.738;2022-09-12T02:03:11;13.80;99.90
59075;DHT22;44860;53.020;6.738;2022-09-12T02:05:43;13.80;99.90
59075;DHT22;44860;53.020;6.738;2022-09-12T02:08:19;13.80;99.90
59075;DHT22;44860;53.020;6.738;2022-09-12T02:10:55;13.90;99.90
59075;DHT22;44860;53.020;6.738;2022-09-12T02:13:33;13.80;99.90
59075;DHT22;44860;53.020;6.738;2022-09-12T02:16:10;13.90;99.90
59075;DHT22;44860;53.020;6.738;2022-09-12T02:18:42;13.90;99.90
59075;DHT22;44860;53.020;6.738;2022-09-12T02:21:09;13.80;99.90
59075;DHT22;44860;53.020;6.738;2022-09-12T02:23:38;13.90;99.90
59075;DHT22;44860;53.020;6.738;2022-09-12T02:26:12;13.90;99.90
59075;DHT22;44860;53.020;6.738;2022-09-12T02:28:41;13.80;99.90
59075;DHT22;44860;53.020;6.738;2022-09-12T02:31:24;13.90;99.90
59075;DHT22;44860;53.020;6.738;2022-09-12T02:33:58;13.80;99.90
59075;DHT22;44860;53.020;6.738;2022-09-12T02:37:00;13.80;99.90
59075;DHT22;44860;53.020;6.738;2022-09-12T02:39:28;13.90;99.90
59075;DHT22;44860;53.020;6.738;2022-09-12T02:41:55;13.90;99.90
59075;DHT22;44860;53.020;6.738;2022-09-12T02:44:24;13.90;99.90
59075;DHT22;44860;53.020;6.738;2022-09-12T02:46:54;13.90;99.90
59075;DHT22;44860;53.020;6.738;2022-09-12T02:49:22;13.90;99.90
59075;DHT22;44860;53.020;6.738;2022-09-12T02:51:48;13.90;99.90
59075;DHT22;44860;53.020;6.738;2022-09-12T02:54:15;13.80;99.90
59075;DHT22;44860;53.020;6.738;2022-09-12T02:56:43;13.90;99.90
59075;DHT22;44860;53.020;6.738;2022-09-12T02:59:15;13.90;99.90
59075;DHT22;44860;53.020;6.738;2022-09-12T03:01:56;13.90;99.90
59075;DHT22;44860;53.020;6.738;2022-09-12T03:04:48;13.90;99.90
59075;DHT22;44860;53.020;6.738;2022-09-12T03:10:22;13.90;99.90
59075;DHT22;44860;53.020;6.738;2022-09-12T03:12:56;13.90;99.90
59075;DHT22;44860;53.020;6.738;2022-09-12T03:18:01;13.90;99.90
59075;DHT22;44860;53.020;6.738;2022-09-12T03:23:35;14.00;99.90
59075;DHT22;44860;53.020;6.738;2022-09-12T03:26:08;14.00;99.90
59075;DHT22;44860;53.020;6.738;2022-09-12T03:28:36;14.00;99.90
59075;DHT22;44860;53.020;6.738;2022-09-12T03:31:17;14.00;99.90
59075;DHT22;44860;53.020;6.738;2022-09-12T03:33:43;14.10;99.90
59075;DHT22;44860;53.020;6.738;2022-09-12T03:36:15;14.10;99.90
59075;DHT22;44860;53.020;6.738;2022-09-12T03:38:41;14.10;99.90
59075;DHT22;44860;53.020;6.738;2022-09-12T03:41:07;14.10;99.90
59075;DHT22;44860;53.020;6.738;2022-09-12T03:43:32;14.10;99.90
59075;DHT22;44860;53.020;6.738;2022-09-12T03:45:58;14.00;99.90
59075;DHT22;44860;53.020;6.738;2022-09-12T03:48:24;14.00;99.90
59075;DHT22;44860;53.020;6.738;2022-09-12T03:50:49;14.00;99.90
59075;DHT22;44860;53.020;6.738;2022-09-12T03:53:15;14.00;99.90
59075;DHT22;44860;53.020;6.738;2022-09-12T03:55:41;14.00;99.90
59075;DHT22;44860;53.020;6.738;2022-09-12T03:58:06;14.00;99.90
59075;DHT22;44860;53.020;6.738;2022-09-12T04:00:32;14.00;99.90
59075;DHT22;44860;53.020;6.738;2022-09-12T04:02:58;14.00;99.90
59075;DHT22;44860;53.020;6.738;2022-09-12T04:05:24;14.00;99.90
59075;DHT22;44860;53.020;6.738;2022-09-12T04:07:50;14.00;99.90
59075;DHT22;44860;53.020;6.738;2022-09-12T04:10:16;14.00;99.90
59075;DHT22;44860;53.020;6.738;2022-09-12T04:12:43;14.00;99.90
59075;DHT22;44860;53.020;6.738;2022-09-12T04:15:09;14.00;99.90
59075;DHT22;44860;53.020;6.738;2022-09-12T04:17:35;14.00;99.90
59075;DHT22;44860;53.020;6.738;2022-09-12T04:20:01;14.00;99.90
59075;DHT22;44860;53.020;6.738;2022-09-12T04:22:27;14.00;99.90
59075;DHT22;44860;53.020;6.738;2022-09-12T04:24:53;14.00;99.90
59075;DHT22;44860;53.020;6.738;2022-09-12T04:27:19;13.90;99.90
59075;DHT22;44860;53.020;6.738;2022-09-12T04:29:44;13.90;99.90
59075;DHT22;44860;53.020;6.738;2022-09-12T04:32:10;14.00;99.90
59075;DHT22;44860;53.020;6.738;2022-09-12T04:34:36;14.00;99.90
59075;DHT22;44860;53.020;6.738;2022-09-12T04:37:01;14.00;99.90
59075;DHT22;44860;53.020;6.738;2022-09-12T04:39:27;14.00;99.90
59075;DHT22;44860;53.020;6.738;2022-09-12T04:41:53;14.00;99.90
59075;DHT22;44860;53.020;6.738;2022-09-12T04:44:19;14.00;99.90
59075;DHT22;44860;53.020;6.738;2022-09-12T04:46:45;14.00;99.90
59075;DHT22;44860;53.020;6.738;2022-09-12T04:49:12;14.00;99.90
59075;DHT22;44860;53.020;6.738;2022-09-12T04:51:40;14.00;99.90
59075;DHT22;44860;53.020;6.738;2022-09-12T04:54:13;14.00;99.90
59075;DHT22;44860;53.020;6.738;2022-09-12T04:56:41;13.90;99.90
59075;DHT22;44860;53.020;6.738;2022-09-12T04:59:07;13.90;99.90
59075;DHT22;44860;53.020;6.738;2022-09-12T05:01:34;13.90;99.90
59075;DHT22;44860;53.020;6.738;2022-09-12T05:03:59;13.90;99.90
59075;DHT22;44860;53.020;6.738;2022-09-12T05:06:31;13.90;99.90
59075;DHT22;44860;53.020;6.738;2022-09-12T05:08:57;13.90;99.90
59075;DHT22;44860;53.020;6.738;2022-09-12T05:11:27;14.00;99.90
59075;DHT22;44860;53.020;6.738;2022-09-12T05:13:54;14.00;99.90
59075;DHT22;44860;53.020;6.738;2022-09-12T05:16:21;14.00;99.90
59075;DHT22;44860;53.020;6.738;2022-09-12T05:18:47;14.00;99.90
59075;DHT22;44860;53.020;6.738;2022-09-12T05:21:18;14.00;99.90
59075;DHT22;44860;53.020;6.738;2022-09-12T05:23:45;14.00;99.90
59075;DHT22;44860;53.020;6.738;2022-09-12T05:26:14;14.00;99.90
59075;DHT22;44860;53.020;6.738;2022-09-12T05:28:40;14.10;99.90
59075;DHT22;44860;53.020;6.738;2022-09-12T05:31:07;14.10;99.90
59075;DHT22;44860;53.020;6.738;2022-09-12T05:33:35;14.10;99.90
59075;DHT22;44860;53.020;6.738;2022-09-12T05:36:02;14.10;99.90
59075;DHT22;44860;53.020;6.738;2022-09-12T05:38:28;14.10;99.90
59075;DHT22;44860;53.020;6.738;2022-09-12T05:41:05;14.20;99.90
59075;DHT22;44860;53.020;6.738;2022-09-12T05:43:35;14.20;99.90
59075;DHT22;44860;53.020;6.738;2022-09-12T05:46:16;14.30;99.90
59075;DHT22;44860;53.020;6.738;2022-09-12T05:48:44;14.30;99.90
59075;DHT22;44860;53.020;6.738;2022-09-12T05:51:34;14.30;99.90
59075;DHT22;44860;53.020;6.738;2022-09-12T05:54:01;14.30;99.90
59075;DHT22;44860;53.020;6.738;2022-09-12T05:56:30;14.40;99.90
59075;DHT22;44860;53.020;6.738;2022-09-12T05:59:00;14.40;99.90
59075;DHT22;44860;53.020;6.738;2022-09-12T06:01:28;14.50;99.90
59075;DHT22;44860;53.020;6.738;2022-09-12T06:03:55;14.50;99.90
59075;DHT22;44860;53.020;6.738;2022-09-12T06:06:23;14.60;99.90
59075;DHT22;44860;53.020;6.738;2022-09-12T06:08:56;14.60;99.90
59075;DHT22;44860;53.020;6.738;2022-09-12T06:11:24;14.60;99.90
59075;DHT22;44860;53.020;6.738;2022-09-12T06:13:51;14.70;99.90
59075;DHT22;44860;53.020;6.738;2022-09-12T06:16:21;14.70;99.90
59075;DHT22;44860;53.020;6.738;2022-09-12T06:18:49;14.70;99.90
59075;DHT22;44860;53.020;6.738;2022-09-12T06:21:16;14.70;99.90
59075;DHT22;44860;53.020;6.738;2022-09-12T06:23:42;14.80;99.90
59075;DHT22;44860;53.020;6.738;2022-09-12T06:26:10;14.80;99.90
59075;DHT22;44860;53.020;6.738;2022-09-12T06:28:38;14.80;99.90
59075;DHT22;44860;53.020;6.738;2022-09-12T06:31:06;14.80;99.90
59075;DHT22;44860;53.020;6.738;2022-09-12T06:33:33;14.80;99.90
59075;DHT22;44860;53.020;6.738;2022-09-12T06:36:13;14.80;99.90
59075;DHT22;44860;53.020;6.738;2022-09-12T06:38:39;14.90;99.90
59075;DHT22;44860;53.020;6.738;2022-09-12T06:41:07;14.90;99.90
59075;DHT22;44860;53.020;6.738;2022-09-12T06:43:34;15.00;99.90
59075;DHT22;44860;53.020;6.738;2022-09-12T06:46:00;15.00;99.90
59075;DHT22;44860;53.020;6.738;2022-09-12T06:48:26;15.00;99.90
59075;DHT22;44860;53.020;6.738;2022-09-12T06:53:23;15.10;99.90
59075;DHT22;44860;53.020;6.738;2022-09-12T06:56:00;15.10;99.90
59075;DHT22;44860;53.020;6.738;2022-09-12T06:58:27;15.10;99.90
59075;DHT22;44860;53.020;6.738;2022-09-12T07:01:03;15.20;99.90
59075;DHT22;44860;53.020;6.738;2022-09-12T07:03:30;15.20;99.90
59075;DHT22;44860;53.020;6.738;2022-09-12T07:05:56;15.20;99.90
59075;DHT22;44860;53.020;6.738;2022-09-12T07:08:21;15.20;99.90
59075;DHT22;44860;53.020;6.738;2022-09-12T07:10:47;15.20;99.90
59075;DHT22;44860;53.020;6.738;2022-09-12T07:13:12;15.30;99.90
59075;DHT22;44860;53.020;6.738;2022-09-12T07:15:38;15.30;99.90
59075;DHT22;44860;53.020;6.738;2022-09-12T07:18:04;15.40;99.90
59075;DHT22;44860;53.020;6.738;2022-09-12T07:20:30;15.30;99.90
59075;DHT22;44860;53.020;6.738;2022-09-12T07:23:00;15.40;99.90
59075;DHT22;44860;53.020;6.738;2022-09-12T07:25:25;15.40;99.90
59075;DHT22;44860;53.020;6.738;2022-09-12T07:27:52;15.40;99.90
59075;DHT22;44860;53.020;6.738;2022-09-12T07:30:19;15.40;99.90
59075;DHT22;44860;53.020;6.738;2022-09-12T07:32:46;15.40;99.90
59075;DHT22;44860;53.020;6.738;2022-09-12T07:35:15;15.50;99.90
59075;DHT22;44860;53.020;6.738;2022-09-12T07:37:41;15.50;99.90
59075;DHT22;44860;53.020;6.738;2022-09-12T07:40:07;15.50;99.90
59075;DHT22;44860;53.020;6.738;2022-09-12T07:42:33;15.60;99.90
59075;DHT22;44860;53.020;6.738;2022-09-12T07:44:58;15.60;99.90
59075;DHT22;44860;53.020;6.738;2022-09-12T07:47:24;15.70;99.90
59075;DHT22;44860;53.020;6.738;2022-09-12T07:49:51;15.70;99.90
59075;DHT22;44860;53.020;6.738;2022-09-12T07:52:17;15.80;99.90
59075;DHT22;44860;53.020;6.738;2022-09-12T07:54:43;15.90;99.90
59075;DHT22;44860;53.020;6.738;2022-09-12T07:57:09;15.90;99.90
59075;DHT22;44860;53.020;6.738;2022-09-12T07:59:34;16.00;99.90
59075;DHT22;44860;53.020;6.738;2022-09-12T08:02:11;16.10;99.90
59075;DHT22;44860;53.020;6.738;2022-09-12T08:04:40;16.20;99.90
59075;DHT22;44860;53.020;6.738;2022-09-12T08:07:07;16.20;99.90
59075;DHT22;44860;53.020;6.738;2022-09-12T08:09:33;16.30;99.90
59075;DHT22;44860;53.020;6.738;2022-09-12T08:11:59;16.30;99.90
59075;DHT22;44860;53.020;6.738;2022-09-12T08:14:25;16.30;99.90
59075;DHT22;44860;53.020;6.738;2022-09-12T08:16:50;16.30;99.90
59075;DHT22;44860;53.020;6.738;2022-09-12T08:19:16;16.30;99.90
59075;DHT22;44860;53.020;6.738;2022-09-12T08:21:42;16.30;99.90
59075;DHT22;44860;53.020;6.738;2022-09-12T08:24:11;16.40;99.90
59075;DHT22;44860;53.020;6.738;2022-09-12T08:26:36;16.40;99.90
59075;DHT22;44860;53.020;6.738;2022-09-12T08:29:02;16.50;99.90
59075;DHT22;44860;53.020;6.738;2022-09-12T08:31:28;16.50;99.90
59075;DHT22;44860;53.020;6.738;2022-09-12T08:34:05;16.60;99.90
59075;DHT22;44860;53.020;6.738;2022-09-12T08:36:31;16.70;99.90
59075;DHT22;44860;53.020;6.738;2022-09-12T08:38:59;16.70;99.90
59075;DHT22;44860;53.020;6.738;2022-09-12T08:41:34;16.70;99.90
59075;DHT22;44860;53.020;6.738;2022-09-12T08:49:32;16.90;99.90
59075;DHT22;44860;53.020;6.738;2022-09-12T08:52:04;16.90;99.90
59075;DHT22;44860;53.020;6.738;2022-09-12T08:54:31;17.00;99.90
59075;DHT22;44860;53.020;6.738;2022-09-12T08:57:01;17.00;99.90
59075;DHT22;44860;53.020;6.738;2022-09-12T08:59:37;17.00;99.90
59075;DHT22;44860;53.020;6.738;2022-09-12T09:02:20;17.10;99.90
59075;DHT22;44860;53.020;6.738;2022-09-12T09:04:57;17.10;99.90
59075;DHT22;44860;53.020;6.738;2022-09-12T09:10:48;17.20;99.90
59075;DHT22;44860;53.020;6.738;2022-09-12T09:13:43;17.30;99.90
59075;DHT22;44860;53.020;6.738;2022-09-12T09:16:34;17.30;99.90
59075;DHT22;44860;53.020;6.738;2022-09-12T09:19:04;17.40;99.90
59075;DHT22;44860;53.020;6.738;2022-09-12T09:22:15;17.50;99.90
59075;DHT22;44860;53.020;6.738;2022-09-12T09:24:54;17.50;99.90
59075;DHT22;44860;53.020;6.738;2022-09-12T09:27:40;17.60;99.90
59075;DHT22;44860;53.020;6.738;2022-09-12T09:30:16;17.80;99.90
59075;DHT22;44860;53.020;6.738;2022-09-12T09:32:47;17.80;99.90
59075;DHT22;44860;53.020;6.738;2022-09-12T09:38:06;17.90;99.90
59075;DHT22;44860;53.020;6.738;2022-09-12T09:43:21;18.20;99.90
59075;DHT22;44860;53.020;6.738;2022-09-12T09:45:49;18.20;99.90
59075;DHT22;44860;53.020;6.738;2022-09-12T09:48:36;18.30;99.90
59075;DHT22;44860;53.020;6.738;2022-09-12T09:51:04;18.50;99.90
59075;DHT22;44860;53.020;6.738;2022-09-12T09:53:53;18.60;99.90
59075;DHT22;44860;53.020;6.738;2022-09-12T09:56:32;18.70;99.90
59075;DHT22;44860;53.020;6.738;2022-09-12T09:59:28;18.80;99.90
59075;DHT22;44860;53.020;6.738;2022-09-12T10:02:16;18.90;99.90
59075;DHT22;44860;53.020;6.738;2022-09-12T10:04:55;19.00;99.90
59075;DHT22;44860;53.020;6.738;2022-09-12T10:07:22;19.20;99.90
59075;DHT22;44860;53.020;6.738;2022-09-12T10:12:36;19.50;99.90
59075;DHT22;44860;53.020;6.738;2022-09-12T10:15:24;19.60;99.90
59075;DHT22;44860;53.020;6.738;2022-09-12T10:17:51;19.80;99.90
59075;DHT22;44860;53.020;6.738;2022-09-12T10:20:42;19.90;99.90
59075;DHT22;44860;53.020;6.738;2022-09-12T10:25:55;20.20;99.90
59075;DHT22;44860;53.020;6.738;2022-09-12T10:28:28;20.20;99.90
59075;DHT22;44860;53.020;6.738;2022-09-12T10:30:55;20.20;99.90
59075;DHT22;44860;53.020;6.738;2022-09-12T10:33:23;20.10;99.90
59075;DHT22;44860;53.020;6.738;2022-09-12T10:35:52;20.20;99.90
59075;DHT22;44860;53.020;6.738;2022-09-12T10:38:31;20.20;99.90
59075;DHT22;44860;53.020;6.738;2022-09-12T10:41:05;20.30;99.90
59075;DHT22;44860;53.020;6.738;2022-09-12T10:43:38;20.50;99.90
59075;DHT22;44860;53.020;6.738;2022-09-12T10:48:46;20.70;99.90
59075;DHT22;44860;53.020;6.738;2022-09-12T10:53:54;21.00;99.90
59075;DHT22;44860;53.020;6.738;2022-09-12T10:56:32;21.10;99.90
59075;DHT22;44860;53.020;6.738;2022-09-12T11:12:39;21.50;99.90
59075;DHT22;44860;53.020;6.738;2022-09-12T11:15:34;21.50;99.90
59075;DHT22;44860;53.020;6.738;2022-09-12T11:24:19;21.60;99.90
59075;DHT22;44860;53.020;6.738;2022-09-12T11:42:45;22.00;99.90
59075;DHT22;44860;53.020;6.738;2022-09-12T11:45:15;22.20;99.90
59075;DHT22;44860;53.020;6.738;2022-09-12T11:47:47;22.30;99.70
59075;DHT22;44860;53.020;6.738;2022-09-12T11:50:27;22.30;99.90
59075;DHT22;44860;53.020;6.738;2022-09-12T11:53:04;22.40;99.90
59075;DHT22;44860;53.020;6.738;2022-09-12T11:56:02;22.40;99.90
59075;DHT22;44860;53.020;6.738;2022-09-12T11:58:30;22.60;98.50
59075;DHT22;44860;53.020;6.738;2022-09-12T12:01:06;22.60;99.20
59075;DHT22;44860;53.020;6.738;2022-09-12T12:03:42;22.60;99.00
59075;DHT22;44860;53.020;6.738;2022-09-12T12:06:20;22.70;97.40
59075;DHT22;44860;53.020;6.738;2022-09-12T12:08:46;22.70;95.10
59075;DHT22;44860;53.020;6.738;2022-09-12T12:11:22;22.70;94.70
59075;DHT22;44860;53.020;6.738;2022-09-12T12:13:55;22.80;94.00
59075;DHT22;44860;53.020;6.738;2022-09-12T12:16:25;22.80;95.50
59075;DHT22;44860;53.020;6.738;2022-09-12T12:21:44;22.90;95.00
59075;DHT22;44860;53.020;6.738;2022-09-12T12:24:22;22.80;94.20
59075;DHT22;44860;53.020;6.738;2022-09-12T12:27:00;22.90;96.60
59075;DHT22;44860;53.020;6.738;2022-09-12T12:29:37;23.10;95.90
59075;DHT22;44860;53.020;6.738;2022-09-12T12:34:35;23.30;94.20
59075;DHT22;44860;53.020;6.738;2022-09-12T12:40:22;23.40;83.50
59075;DHT22;44860;53.020;6.738;2022-09-12T12:42:56;23.40;86.10
59075;DHT22;44860;53.020;6.738;2022-09-12T12:47:55;23.50;87.40
59075;DHT22;44860;53.020;6.738;2022-09-12T12:50:23;23.50;87.00
59075;DHT22;44860;53.020;6.738;2022-09-12T12:53:17;23.60;83.00
59075;DHT22;44860;53.020;6.738;2022-09-12T12:58:31;23.70;82.60
59075;DHT22;44860;53.020;6.738;2022-09-12T13:01:14;23.70;83.50
59075;DHT22;44860;53.020;6.738;2022-09-12T13:03:44;23.70;85.60
59075;DHT22;44860;53.020;6.738;2022-09-12T13:09:07;23.90;81.80
59075;DHT22;44860;53.020;6.738;2022-09-12T13:11:36;23.90;77.40
59075;DHT22;44860;53.020;6.738;2022-09-12T13:16:59;24.00;75.50
59075;DHT22;44860;53.020;6.738;2022-09-12T13:19:32;24.10;75.00
59075;DHT22;44860;53.020;6.738;2022-09-12T13:22:03;24.10;79.50
59075;DHT22;44860;53.020;6.738;2022-09-12T13:24:29;24.10;75.40
59075;DHT22;44860;53.020;6.738;2022-09-12T13:26:56;24.00;77.60
59075;DHT22;44860;53.020;6.738;2022-09-12T13:29:26;24.00;74.00
59075;DHT22;44860;53.020;6.738;2022-09-12T13:32:00;24.00;75.40
59075;DHT22;44860;53.020;6.738;2022-09-12T13:39:46;24.20;71.00
59075;DHT22;44860;53.020;6.738;2022-09-12T13:45:26;24.20;69.10
59075;DHT22;44860;53.020;6.738;2022-09-12T13:47:59;24.30;68.20
59075;DHT22;44860;53.020;6.738;2022-09-12T13:51:12;24.30;68.80
59075;DHT22;44860;53.020;6.738;2022-09-12T13:53:19;24.30;68.00
59075;DHT22;44860;53.020;6.738;2022-09-12T13:55:51;24.40;66.80
59075;DHT22;44860;53.020;6.738;2022-09-12T13:58:32;24.40;69.10
59075;DHT22;44860;53.020;6.738;2022-09-12T14:01:15;24.50;67.70
59075;DHT22;44860;53.020;6.738;2022-09-12T14:03:52;24.60;68.50
59075;DHT22;44860;53.020;6.738;2022-09-12T14:06:49;24.60;63.70
59075;DHT22;44860;53.020;6.738;2022-09-12T14:09:24;24.60;64.60
59075;DHT22;44860;53.020;6.738;2022-09-12T14:11:51;24.70;58.60
59075;DHT22;44860;53.020;6.738;2022-09-12T14:14:38;24.50;57.50
59075;DHT22;44860;53.020;6.738;2022-09-12T14:19:41;24.50;54.70
59075;DHT22;44860;53.020;6.738;2022-09-12T14:22:11;24.50;54.30
59075;DHT22;44860;53.020;6.738;2022-09-12T14:24:47;24.40;53.00
59075;DHT22;44860;53.020;6.738;2022-09-12T14:27:21;24.40;54.80
59075;DHT22;44860;53.020;6.738;2022-09-12T14:29:52;24.30;57.20
59075;DHT22;44860;53.020;6.738;2022-09-12T14:32:23;24.30;55.40
59075;DHT22;44860;53.020;6.738;2022-09-12T14:35:24;24.40;52.30
59075;DHT22;44860;53.020;6.738;2022-09-12T14:37:50;24.30;55.70
59075;DHT22;44860;53.020;6.738;2022-09-12T14:40:22;24.30;55.90
59075;DHT22;44860;53.020;6.738;2022-09-12T14:42:50;24.40;56.90
59075;DHT22;44860;53.020;6.738;2022-09-12T14:45:29;24.40;58.40
59075;DHT22;44860;53.020;6.738;2022-09-12T14:47:57;24.40;57.90
59075;DHT22;44860;53.020;6.738;2022-09-12T14:50:24;24.50;57.00
59075;DHT22;44860;53.020;6.738;2022-09-12T14:55:50;24.40;54.60
59075;DHT22;44860;53.020;6.738;2022-09-12T15:00:59;24.30;56.50
59075;DHT22;44860;53.020;6.738;2022-09-12T15:03:28;24.40;55.80
59075;DHT22;44860;53.020;6.738;2022-09-12T15:05:55;24.40;54.10
59075;DHT22;44860;53.020;6.738;2022-09-12T15:08:23;24.30;54.30
59075;DHT22;44860;53.020;6.738;2022-09-12T15:10:49;24.30;52.90
59075;DHT22;44860;53.020;6.738;2022-09-12T15:13:54;24.30;53.60
59075;DHT22;44860;53.020;6.738;2022-09-12T15:16:22;24.40;52.60
59075;DHT22;44860;53.020;6.738;2022-09-12T15:18:48;24.40;53.70
59075;DHT22;44860;53.020;6.738;2022-09-12T15:21:16;24.30;54.20
59075;DHT22;44860;53.020;6.738;2022-09-12T15:23:48;24.30;54.80
59075;DHT22;44860;53.020;6.738;2022-09-12T15:26:17;24.30;55.90
59075;DHT22;44860;53.020;6.738;2022-09-12T15:28:43;24.30;55.40
59075;DHT22;44860;53.020;6.738;2022-09-12T15:33:40;24.40;57.90
59075;DHT22;44860;53.020;6.738;2022-09-12T15:36:15;24.40;56.60
59075;DHT22;44860;53.020;6.738;2022-09-12T15:38:42;24.50;55.10
59075;DHT22;44860;53.020;6.738;2022-09-12T15:41:10;24.50;54.70
59075;DHT22;44860;53.020;6.738;2022-09-12T15:43:37;24.50;53.80
59075;DHT22;44860;53.020;6.738;2022-09-12T15:46:03;24.60;51.60
59075;DHT22;44860;53.020;6.738;2022-09-12T15:48:31;24.50;53.00
59075;DHT22;44860;53.020;6.738;2022-09-12T15:50:57;24.50;55.40
59075;DHT22;44860;53.020;6.738;2022-09-12T15:53:26;24.50;53.50
59075;DHT22;44860;53.020;6.738;2022-09-12T15:55:52;24.50;53.10
59075;DHT22;44860;53.020;6.738;2022-09-12T15:58:18;24.50;53.50
59075;DHT22;44860;53.020;6.738;2022-09-12T16:00:43;24.50;51.70
59075;DHT22;44860;53.020;6.738;2022-09-12T16:03:21;24.50;52.50
59075;DHT22;44860;53.020;6.738;2022-09-12T16:05:47;24.50;54.30
59075;DHT22;44860;53.020;6.738;2022-09-12T16:08:13;24.40;53.70
59075;DHT22;44860;53.020;6.738;2022-09-12T16:10:42;24.40;51.20
59075;DHT22;44860;53.020;6.738;2022-09-12T16:13:07;24.40;51.00
59075;DHT22;44860;53.020;6.738;2022-09-12T16:15:33;24.30;52.00
59075;DHT22;44860;53.020;6.738;2022-09-12T16:17:59;24.30;52.60
59075;DHT22;44860;53.020;6.738;2022-09-12T16:20:24;24.30;53.00
59075;DHT22;44860;53.020;6.738;2022-09-12T16:22:50;24.30;53.60
59075;DHT22;44860;53.020;6.738;2022-09-12T16:25:16;24.40;54.90
59075;DHT22;44860;53.020;6.738;2022-09-12T16:27:43;24.40;53.30
59075;DHT22;44860;53.020;6.738;2022-09-12T16:30:09;24.40;53.20
59075;DHT22;44860;53.020;6.738;2022-09-12T16:32:35;24.20;54.10
59075;DHT22;44860;53.020;6.738;2022-09-12T16:35:00;24.20;55.10
59075;DHT22;44860;53.020;6.738;2022-09-12T16:37:26;24.10;55.70
59075;DHT22;44860;53.020;6.738;2022-09-12T16:39:52;24.10;57.60
59075;DHT22;44860;53.020;6.738;2022-09-12T16:42:18;24.00;56.80
59075;DHT22;44860;53.020;6.738;2022-09-12T16:44:45;23.90;57.90
59075;DHT22;44860;53.020;6.738;2022-09-12T16:47:12;23.80;58.90
59075;DHT22;44860;53.020;6.738;2022-09-12T16:49:37;23.80;59.70
59075;DHT22;44860;53.020;6.738;2022-09-12T16:52:03;23.70;60.00
59075;DHT22;44860;53.020;6.738;2022-09-12T16:54:30;23.60;61.60
59075;DHT22;44860;53.020;6.738;2022-09-12T16:56:55;23.50;62.90
59075;DHT22;44860;53.020;6.738;2022-09-12T16:59:21;23.50;64.00
59075;DHT22;44860;53.020;6.738;2022-09-12T17:01:46;23.40;64.40
59075;DHT22;44860;53.020;6.738;2022-09-12T17:04:12;23.30;65.90
59075;DHT22;44860;53.020;6.738;2022-09-12T17:06:38;23.20;67.60
59075;DHT22;44860;53.020;6.738;2022-09-12T17:09:04;23.20;68.50
59075;DHT22;44860;53.020;6.738;2022-09-12T17:11:37;23.10;72.10
59075;DHT22;44860;53.020;6.738;2022-09-12T17:14:05;23.00;75.60
59075;DHT22;44860;53.020;6.738;2022-09-12T17:16:33;22.80;77.80
59075;DHT22;44860;53.020;6.738;2022-09-12T17:18:58;22.70;81.60
59075;DHT22;44860;53.020;6.738;2022-09-12T17:21:24;22.60;83.20
59075;DHT22;44860;53.020;6.738;2022-09-12T17:23:50;22.50;87.10
59075;DHT22;44860;53.020;6.738;2022-09-12T17:26:16;22.40;90.90
59075;DHT22;44860;53.020;6.738;2022-09-12T17:28:42;22.20;92.30
59075;DHT22;44860;53.020;6.738;2022-09-12T17:31:11;22.10;93.90
59075;DHT22;44860;53.020;6.738;2022-09-12T17:33:37;21.90;95.80
59075;DHT22;44860;53.020;6.738;2022-09-12T17:36:06;21.80;96.90
59075;DHT22;44860;53.020;6.738;2022-09-12T17:38:33;21.60;97.40
59075;DHT22;44860;53.020;6.738;2022-09-12T17:41:05;21.60;97.70
59075;DHT22;44860;53.020;6.738;2022-09-12T17:43:31;21.50;98.00
59075;DHT22;44860;53.020;6.738;2022-09-12T17:45:57;21.40;99.60
59075;DHT22;44860;53.020;6.738;2022-09-12T17:48:23;21.30;99.90
59075;DHT22;44860;53.020;6.738;2022-09-12T17:50:49;21.20;99.90
59075;DHT22;44860;53.020;6.738;2022-09-12T17:53:15;21.20;99.90
59075;DHT22;44860;53.020;6.738;2022-09-12T17:55:41;21.20;99.90
59075;DHT22;44860;53.020;6.738;2022-09-12T17:58:07;21.20;99.90
59075;DHT22;44860;53.020;6.738;2022-09-12T18:00:34;21.10;99.80
59075;DHT22;44860;53.020;6.738;2022-09-12T18:03:22;21.10;99.70
59075;DHT22;44860;53.020;6.738;2022-09-12T18:05:51;21.00;99.90